sensor_id;sensor_type;location;lat;lon;timestamp;P1;durP1;ratioP1;P2;durP2;ratioP2
59314;SDS011;46521;50.160;20.802;2022-09-09T00:03:05;12.93;;;9.85;;
59314;SDS011;46521;50.160;20.802;2022-09-09T00:13:24;11.57;;;9.07;;
59314;SDS011;46521;50.160;20.802;2022-09-09T00:23:39;11.97;;;8.80;;
59314;SDS011;46521;50.160;20.802;2022-09-09T00:33:45;11.38;;;8.40;;
59314;SDS011;46521;50.160;20.802;2022-09-09T00:44:36;12.00;;;8.40;;
59314;SDS011;46521;50.160;20.802;2022-09-09T00:54:18;12.93;;;8.70;;
59314;SDS011;46521;50.160;20.802;2022-09-09T01:04:27;11.75;;;8.58;;
59314;SDS011;46521;50.160;20.802;2022-09-09T01:24:44;13.00;;;8.80;;
59314;SDS011;46521;50.160;20.802;2022-09-09T01:35:11;11.65;;;9.40;;
59314;SDS011;46521;50.160;20.802;2022-09-09T01:45:20;12.60;;;9.73;;
59314;SDS011;46521;50.160;20.802;2022-09-09T01:55:38;13.17;;;9.87;;
59314;SDS011;46521;50.160;20.802;2022-09-09T02:05:45;15.85;;;10.38;;
59314;SDS011;46521;50.160;20.802;2022-09-09T02:15:58;13.83;;;10.07;;
59314;SDS011;46521;50.160;20.802;2022-09-09T02:26:04;13.48;;;9.45;;
59314;SDS011;46521;50.160;20.802;2022-09-09T02:36:07;13.87;;;10.10;;
59314;SDS011;46521;50.160;20.802;2022-09-09T02:56:25;15.40;;;10.85;;
59314;SDS011;46521;50.160;20.802;2022-09-09T03:06:32;14.73;;;10.47;;
59314;SDS011;46521;50.160;20.802;2022-09-09T03:16:34;13.05;;;9.65;;
59314;SDS011;46521;50.160;20.802;2022-09-09T03:26:35;13.78;;;10.43;;
59314;SDS011;46521;50.160;20.802;2022-09-09T03:36:38;15.75;;;10.70;;
59314;SDS011;46521;50.160;20.802;2022-09-09T03:46:41;15.33;;;10.00;;
59314;SDS011;46521;50.160;20.802;2022-09-09T03:56:43;15.28;;;10.93;;
59314;SDS011;46521;50.160;20.802;2022-09-09T04:06:44;14.53;;;11.43;;
59314;SDS011;46521;50.160;20.802;2022-09-09T04:16:45;16.40;;;11.20;;
59314;SDS011;46521;50.160;20.802;2022-09-09T04:26:47;17.08;;;11.48;;
59314;SDS011;46521;50.160;20.802;2022-09-09T04:36:48;17.70;;;12.30;;
59314;SDS011;46521;50.160;20.802;2022-09-09T04:46:49;16.40;;;12.37;;
59314;SDS011;46521;50.160;20.802;2022-09-09T04:56:51;16.80;;;12.07;;
59314;SDS011;46521;50.160;20.802;2022-09-09T05:06:52;15.65;;;12.20;;
59314;SDS011;46521;50.160;20.802;2022-09-09T05:16:53;15.60;;;12.00;;
59314;SDS011;46521;50.160;20.802;2022-09-09T05:26:55;15.65;;;12.00;;
59314;SDS011;46521;50.160;20.802;2022-09-09T05:37:00;13.57;;;10.03;;
59314;SDS011;46521;50.160;20.802;2022-09-09T05:47:01;14.90;;;11.70;;
59314;SDS011;46521;50.160;20.802;2022-09-09T05:57:03;16.53;;;12.87;;
59314;SDS011;46521;50.160;20.802;2022-09-09T06:07:05;16.33;;;11.98;;
59314;SDS011;46521;50.160;20.802;2022-09-09T06:17:06;15.95;;;11.85;;
59314;SDS011;46521;50.160;20.802;2022-09-09T06:27:08;16.58;;;12.68;;
59314;SDS011;46521;50.160;20.802;2022-09-09T06:37:09;16.90;;;13.07;;
59314;SDS011;46521;50.160;20.802;2022-09-09T06:47:11;18.43;;;14.47;;
59314;SDS011;46521;50.160;20.802;2022-09-09T06:57:12;19.50;;;13.25;;
59314;SDS011;46521;50.160;20.802;2022-09-09T07:07:13;18.00;;;13.40;;
59314;SDS011;46521;50.160;20.802;2022-09-09T07:17:16;14.83;;;11.90;;
59314;SDS011;46521;50.160;20.802;2022-09-09T07:27:17;14.33;;;10.60;;
59314;SDS011;46521;50.160;20.802;2022-09-09T07:37:19;13.90;;;11.70;;
59314;SDS011;46521;50.160;20.802;2022-09-09T07:47:20;13.75;;;10.63;;
59314;SDS011;46521;50.160;20.802;2022-09-09T07:57:21;13.05;;;10.30;;
59314;SDS011;46521;50.160;20.802;2022-09-09T08:07:23;13.65;;;10.55;;
59314;SDS011;46521;50.160;20.802;2022-09-09T08:17:25;10.57;;;7.77;;
59314;SDS011;46521;50.160;20.802;2022-09-09T08:27:26;11.73;;;8.05;;
59314;SDS011;46521;50.160;20.802;2022-09-09T08:37:28;10.93;;;7.80;;
59314;SDS011;46521;50.160;20.802;2022-09-09T08:58:29;7.20;;;4.10;;
59314;SDS011;46521;50.160;20.802;2022-09-09T09:08:36;6.93;;;3.70;;
59314;SDS011;46521;50.160;20.802;2022-09-09T09:18:44;6.20;;;3.10;;
59314;SDS011;46521;50.160;20.802;2022-09-09T09:28:46;6.50;;;3.43;;
59314;SDS011;46521;50.160;20.802;2022-09-09T09:38:55;7.43;;;3.63;;
59314;SDS011;46521;50.160;20.802;2022-09-09T09:49:02;6.00;;;3.30;;
59314;SDS011;46521;50.160;20.802;2022-09-09T09:59:18;5.03;;;2.50;;
59314;SDS011;46521;50.160;20.802;2022-09-09T10:09:40;5.90;;;3.00;;
59314;SDS011;46521;50.160;20.802;2022-09-09T10:19:42;6.47;;;3.17;;
59314;SDS011;46521;50.160;20.802;2022-09-09T11:00:47;6.00;;;2.70;;
59314;SDS011;46521;50.160;20.802;2022-09-09T11:21:04;4.45;;;2.10;;
59314;SDS011;46521;50.160;20.802;2022-09-09T11:41:39;6.88;;;3.83;;
59314;SDS011;46521;50.160;20.802;2022-09-09T11:51:40;5.95;;;2.80;;
59314;SDS011;46521;50.160;20.802;2022-09-09T12:01:42;2.77;;;1.50;;
59314;SDS011;46521;50.160;20.802;2022-09-09T12:11:44;4.80;;;2.00;;
59314;SDS011;46521;50.160;20.802;2022-09-09T12:22:06;5.25;;;2.10;;
59314;SDS011;46521;50.160;20.802;2022-09-09T12:32:35;5.25;;;2.13;;
59314;SDS011;46521;50.160;20.802;2022-09-09T12:42:39;3.90;;;1.83;;
59314;SDS011;46521;50.160;20.802;2022-09-09T12:52:41;4.57;;;2.03;;
59314;SDS011;46521;50.160;20.802;2022-09-09T13:02:46;3.55;;;1.70;;
59314;SDS011;46521;50.160;20.802;2022-09-09T13:12:53;4.87;;;2.07;;
59314;SDS011;46521;50.160;20.802;2022-09-09T13:22:54;2.93;;;1.60;;
59314;SDS011;46521;50.160;20.802;2022-09-09T13:33:03;5.03;;;1.93;;
59314;SDS011;46521;50.160;20.802;2022-09-09T13:43:10;3.80;;;1.60;;
59314;SDS011;46521;50.160;20.802;2022-09-09T13:53:21;4.30;;;1.80;;
59314;SDS011;46521;50.160;20.802;2022-09-09T14:03:23;3.17;;;1.60;;
59314;SDS011;46521;50.160;20.802;2022-09-09T14:13:24;3.40;;;1.50;;
59314;SDS011;46521;50.160;20.802;2022-09-09T14:23:26;4.70;;;1.80;;
59314;SDS011;46521;50.160;20.802;2022-09-09T14:33:27;4.00;;;2.03;;
59314;SDS011;46521;50.160;20.802;2022-09-09T14:43:31;4.60;;;1.90;;
59314;SDS011;46521;50.160;20.802;2022-09-09T14:53:33;3.93;;;1.70;;
59314;SDS011;46521;50.160;20.802;2022-09-09T15:03:35;4.30;;;2.20;;
59314;SDS011;46521;50.160;20.802;2022-09-09T15:13:38;5.50;;;2.00;;
59314;SDS011;46521;50.160;20.802;2022-09-09T15:23:41;4.80;;;2.13;;
59314;SDS011;46521;50.160;20.802;2022-09-09T15:33:49;7.70;;;3.20;;
59314;SDS011;46521;50.160;20.802;2022-09-09T15:43:53;8.50;;;4.10;;
59314;SDS011;46521;50.160;20.802;2022-09-09T15:53:57;5.43;;;2.50;;
59314;SDS011;46521;50.160;20.802;2022-09-09T16:03:59;4.83;;;2.50;;
59314;SDS011;46521;50.160;20.802;2022-09-09T16:14:01;4.50;;;2.20;;
59314;SDS011;46521;50.160;20.802;2022-09-09T16:24:04;5.40;;;2.60;;
59314;SDS011;46521;50.160;20.802;2022-09-09T16:34:07;4.90;;;2.50;;
59314;SDS011;46521;50.160;20.802;2022-09-09T16:44:10;6.10;;;2.98;;
59314;SDS011;46521;50.160;20.802;2022-09-09T16:54:13;8.50;;;4.10;;
59314;SDS011;46521;50.160;20.802;2022-09-09T17:04:17;13.00;;;6.70;;
59314;SDS011;46521;50.160;20.802;2022-09-09T17:14:21;19.40;;;11.35;;
59314;SDS011;46521;50.160;20.802;2022-09-09T17:24:23;15.40;;;8.70;;
59314;SDS011;46521;50.160;20.802;2022-09-09T17:34:26;8.95;;;4.20;;
59314;SDS011;46521;50.160;20.802;2022-09-09T17:44:28;15.50;;;8.10;;
59314;SDS011;46521;50.160;20.802;2022-09-09T17:54:29;7.90;;;5.10;;
59314;SDS011;46521;50.160;20.802;2022-09-09T18:04:30;9.60;;;5.10;;
59314;SDS011;46521;50.160;20.802;2022-09-09T18:14:32;9.48;;;5.75;;
59314;SDS011;46521;50.160;20.802;2022-09-09T18:24:33;11.28;;;7.48;;
59314;SDS011;46521;50.160;20.802;2022-09-09T18:34:36;11.23;;;7.70;;
59314;SDS011;46521;50.160;20.802;2022-09-09T18:44:37;12.20;;;8.00;;
59314;SDS011;46521;50.160;20.802;2022-09-09T18:54:38;12.70;;;8.85;;
59314;SDS011;46521;50.160;20.802;2022-09-09T19:04:43;13.33;;;9.63;;
59314;SDS011;46521;50.160;20.802;2022-09-09T19:14:45;14.13;;;10.73;;
59314;SDS011;46521;50.160;20.802;2022-09-09T19:24:46;13.20;;;10.30;;
59314;SDS011;46521;50.160;20.802;2022-09-09T19:34:49;14.40;;;11.00;;
59314;SDS011;46521;50.160;20.802;2022-09-09T19:44:51;14.30;;;11.05;;
59314;SDS011;46521;50.160;20.802;2022-09-09T19:54:53;15.17;;;11.17;;
59314;SDS011;46521;50.160;20.802;2022-09-09T20:04:55;17.77;;;12.50;;
59314;SDS011;46521;50.160;20.802;2022-09-09T20:14:56;19.20;;;13.23;;
59314;SDS011;46521;50.160;20.802;2022-09-09T20:24:58;19.13;;;14.97;;
59314;SDS011;46521;50.160;20.802;2022-09-09T20:34:59;18.27;;;14.33;;
59314;SDS011;46521;50.160;20.802;2022-09-09T20:45:00;21.35;;;14.73;;
59314;SDS011;46521;50.160;20.802;2022-09-09T20:55:02;17.97;;;13.87;;
59314;SDS011;46521;50.160;20.802;2022-09-09T21:05:03;18.25;;;13.25;;
59314;SDS011;46521;50.160;20.802;2022-09-09T21:15:05;20.15;;;14.58;;
59314;SDS011;46521;50.160;20.802;2022-09-09T21:25:07;18.20;;;14.10;;
59314;SDS011;46521;50.160;20.802;2022-09-09T21:35:09;20.55;;;15.50;;
59314;SDS011;46521;50.160;20.802;2022-09-09T21:45:11;21.70;;;16.10;;
59314;SDS011;46521;50.160;20.802;2022-09-09T21:55:14;20.55;;;15.70;;
59314;SDS011;46521;50.160;20.802;2022-09-09T22:05:15;21.73;;;15.93;;
59314;SDS011;46521;50.160;20.802;2022-09-09T22:15:17;19.50;;;15.83;;
59314;SDS011;46521;50.160;20.802;2022-09-09T22:25:18;20.50;;;16.03;;
59314;SDS011;46521;50.160;20.802;2022-09-09T22:35:20;20.43;;;16.10;;
59314;SDS011;46521;50.160;20.802;2022-09-09T22:55:39;20.80;;;15.50;;
59314;SDS011;46521;50.160;20.802;2022-09-09T23:05:41;21.40;;;15.28;;
59314;SDS011;46521;50.160;20.802;2022-09-09T23:15:42;20.90;;;15.70;;
59314;SDS011;46521;50.160;20.802;2022-09-09T23:25:46;19.80;;;16.07;;
59314;SDS011;46521;50.160;20.802;2022-09-09T23:35:56;23.50;;;16.90;;
59314;SDS011;46521;50.160;20.802;2022-09-09T23:46:01;23.95;;;16.55;;
59314;SDS011;46521;50.160;20.802;2022-09-09T23:56:03;25.70;;;17.90;;
